This is the latest recevied weather packets stored in our database for station/object KH6HHG. If no packets are shown the sender has not sent any weather packets the latest 1 day(s).
| Time | Temp. | Humidity | Pressure | Rain* | Wind** | Luminosity | Snow |
|---|---|---|---|---|---|---|---|
| 1778097397 | 26.67° C | 74% | 1013.4 hPa | 0 mm | - | - | - |
| 1778095897 | 26.11° C | 75% | 1013.4 hPa | 0 mm | - | - | - |
| 1778094697 | 25.56° C | 76% | 1013.3 hPa | 0 mm | - | - | - |
| 1778094397 | 25.56° C | 75% | 1013.3 hPa | 0 mm | - | - | - |
| 1778094097 | 25° C | 75% | 1013.3 hPa | 0 mm | - | - | - |
| 1778093197 | 24.44° C | 78% | 1013.2 hPa | 0 mm | - | - | - |
| 1778092897 | 24.44° C | 77% | 1013.2 hPa | 0 mm | - | - | - |
| 1778092597 | 24.44° C | 78% | 1013.2 hPa | 0 mm | - | - | - |
| 1778092299 | 23.89° C | 77% | 1013.2 hPa | 0 mm | - | - | - |
| 1778091999 | 23.89° C | 78% | 1013.2 hPa | 0 mm | - | - | - |
| 1778091699 | 23.33° C | 79% | 1013.1 hPa | 0 mm | - | - | - |
| 1778091399 | 23.33° C | 81% | 1013.1 hPa | 0 mm | - | - | - |
| 1778091099 | 22.78° C | 82% | 1013 hPa | 0 mm | - | - | - |
| 1778090799 | 22.22° C | 83% | 1013 hPa | 0 mm | - | - | - |
| 1778090499 | 21.67° C | 84% | 1013 hPa | 0 mm | - | - | - |
| 1778090199 | 21.11° C | 86% | 1013 hPa | 0 mm | - | - | - |
| 1778089899 | 21.11° C | 88% | 1013 hPa | 0 mm | - | - | - |
| 1778089599 | 20.56° C | 88% | 1013 hPa | 0 mm | - | - | - |
| 1778088999 | 19.44° C | 87% | 1012.8 hPa | 0 mm | - | - | - |
| 1778084197 | 15.56° C | 90% | 1011.9 hPa | 0 mm | - | - | - |
| 1778082698 | 15.56° C | 89% | 1011.7 hPa | 0 mm | - | - | - |
| 1778081798 | 16.11° C | 89% | 1011.7 hPa | 0 mm | - | - | - |
| 1778081498 | 16.11° C | 89% | 1011.6 hPa | 0 mm | - | - | - |
| 1778080898 | 15.56° C | 89% | 1011.5 hPa | 0 mm | - | - | - |
| 1778080598 | 15.56° C | 89% | 1011.6 hPa | 0 mm | - | - | - |
* Rain latest hour (hover to see other rain measurements)
** Current wind speed in m/s (hover to see current wind gust speed)